world map with KSY marked

KSY - Airport

This information may not be accurate or current and is not valid for navigation or flight planning. No warranty of fitness for any purpose is made or implied.

flag of Turkey

Donate via PayPal

Additional information is available on the NEW Great Circle Mapper

Location
City:  Kars, Kars, Turkey
ICAO / IATA:LTCF / KSY

Details
Type:Airport (Aerodrome, Airfield)
Latitude:40°33'44"N (40.562222)
Longitude:43°06'54"E (43.115002)
Datum:WGS 1984
Elevation:5889 ft (1795 m)
Runways:1
Longest:11483 × 148 ft (3500 × 45 m)

Time
Timezone:UTC+3 (DST+5)
Local Time:

Weather
METAR:LTCF  041350Z 00000KT 9999 FEW040 M06/M09 Q1028 RMK RWY24 14003KT
TAF:LTCF  (expired)

Related Locations
Nearby:
Farthest:NEMO: 11560 mi / 18604 km
Pacific Ocean [Oceanic Pole of Inaccessibility (Point Nemo)]

Find:

   beyond  
but within

Other Information
Maps:
Sources:

  


 


Great Circle Mapper   Great Circle Mapper
Great Circle Mapper FAQ   Great Circle Mapper FAQ
  Karl's Home Page
KLSē   KLSē Home
   GC on Facebook
Airlines of the World   Airlines of the World
Donate via PayPal


Copyright © 2004-2019, Karl L. Swartz. All rights reserved.
All trademarks mentioned herein belong to their respective owners.

Please see credits for attribution and copyright information.

Karl Swartz <karl@kls2.com>
  Powered by FreeBSD
Valid HTML 4.01!
Labeled with ICRA
hCard Microformat
Geo Microformat